createdAt,value
2017-08-21T00:00:05.466Z,78.49
2017-08-21T00:00:46.038Z,78.3
2017-08-21T00:01:26.663Z,77.82
2017-08-21T00:02:07.276Z,78.11
2017-08-21T00:02:47.845Z,78.78
2017-08-21T00:03:28.420Z,78.59
2017-08-21T00:04:08.998Z,77.73
2017-08-21T00:04:49.604Z,77.44
2017-08-21T00:05:30.201Z,77.73
2017-08-21T00:06:10.816Z,77.63
2017-08-21T00:06:51.403Z,78.02
2017-08-21T00:07:31.971Z,77.53
2017-08-21T00:08:12.531Z,77.73
2017-08-21T00:08:53.124Z,77.92
2017-08-21T00:09:33.701Z,77.63
2017-08-21T00:10:14.274Z,77.92
2017-08-21T00:10:54.874Z,77.92
2017-08-21T00:11:35.467Z,77.82
2017-08-21T00:12:16.041Z,77.63
2017-08-21T00:12:56.605Z,78.11
2017-08-21T00:13:37.169Z,77.92
2017-08-21T00:14:17.761Z,77.82
2017-08-21T00:14:58.323Z,77.73
2017-08-21T00:15:38.888Z,77.44
2017-08-21T00:16:19.465Z,78.02
2017-08-21T00:17:00.054Z,77.82
2017-08-21T00:17:40.647Z,77.63
2017-08-21T00:18:21.237Z,77.53
2017-08-21T00:19:01.827Z,77.53
2017-08-21T00:19:42.408Z,77.73
2017-08-21T00:20:22.988Z,77.63
2017-08-21T00:21:03.579Z,78.02
2017-08-21T00:21:44.173Z,77.92
2017-08-21T00:22:24.740Z,77.63
2017-08-21T00:23:05.296Z,77.5
2017-08-21T00:23:45.874Z,78.11
2017-08-21T00:24:26.447Z,77.82
2017-08-21T00:25:07.034Z,77.53
2017-08-21T00:25:47.625Z,77.53
2017-08-21T00:26:28.193Z,78.2
2017-08-21T00:27:08.763Z,77.63
2017-08-21T00:27:49.341Z,77.73
2017-08-21T00:28:29.902Z,77.78
2017-08-21T00:29:10.491Z,77.5
2017-08-21T00:29:51.051Z,77.78
2017-08-21T00:30:31.623Z,78.02
2017-08-21T00:31:12.196Z,77.92
2017-08-21T00:31:55.499Z,77.69
2017-08-21T00:32:36.069Z,77.92
2017-08-21T00:33:16.641Z,77.59
2017-08-21T00:33:57.215Z,77.59
2017-08-21T00:34:37.788Z,77.78
2017-08-21T00:35:18.375Z,77.59
2017-08-21T00:35:58.944Z,77.88
2017-08-21T00:36:39.516Z,77.63
2017-08-21T00:37:20.090Z,77.53
2017-08-21T00:38:00.680Z,77.88
2017-08-21T00:38:41.250Z,77.78
2017-08-21T00:39:21.816Z,78.07
2017-08-21T00:40:02.397Z,77.59
2017-08-21T00:40:42.981Z,78.07
2017-08-21T00:41:23.583Z,77.97
2017-08-21T00:42:04.173Z,77.59
2017-08-21T00:42:44.753Z,77.88
2017-08-21T00:43:25.350Z,77.88
2017-08-21T00:44:05.915Z,77.78
2017-08-21T00:44:46.474Z,77.69
2017-08-21T00:45:27.053Z,77.88
2017-08-21T00:46:07.613Z,77.73
2017-08-21T00:46:48.173Z,78.45
2017-08-21T00:47:28.746Z,78.3
2017-08-21T00:48:09.317Z,78.27
2017-08-21T00:48:49.891Z,78.45
2017-08-21T00:49:30.463Z,77.88
2017-08-21T00:50:11.028Z,77.69
2017-08-21T00:50:51.607Z,77.78
2017-08-21T00:51:32.186Z,77.59
2017-08-21T00:52:12.761Z,77.34
2017-08-21T00:52:53.362Z,77.63
2017-08-21T00:53:33.960Z,77.97
2017-08-21T00:54:14.551Z,77.78
2017-08-21T00:54:55.119Z,77.88
2017-08-21T00:55:35.708Z,77.78
2017-08-21T00:56:16.272Z,77.97
2017-08-21T00:56:56.835Z,77.5
2017-08-21T00:57:37.399Z,77.88
2017-08-21T00:58:17.970Z,77.88
2017-08-21T00:58:58.533Z,77.78
2017-08-21T00:59:39.110Z,77.97
2017-08-21T01:00:19.679Z,77.88
2017-08-21T01:01:00.242Z,77.88
2017-08-21T01:01:40.820Z,77.78
2017-08-21T01:02:21.396Z,77.88
2017-08-21T01:03:01.956Z,77.69
2017-08-21T01:03:42.519Z,77.69
2017-08-21T01:04:23.114Z,77.78
2017-08-21T01:05:03.684Z,78.74
2017-08-21T01:05:44.263Z,78.36
2017-08-21T01:06:24.830Z,78.45
2017-08-21T01:07:05.399Z,78.55
2017-08-21T01:07:45.975Z,78.27
2017-08-21T01:08:26.538Z,78.36
2017-08-21T01:09:07.102Z,78.45
2017-08-21T01:09:47.681Z,78.55
2017-08-21T01:10:28.255Z,78.36
2017-08-21T01:11:08.825Z,78.36
2017-08-21T01:11:49.398Z,78.64
2017-08-21T01:12:29.957Z,78.27
2017-08-21T01:13:10.524Z,78.27
2017-08-21T01:13:51.131Z,78.27
2017-08-21T01:14:31.704Z,78.36
2017-08-21T01:15:12.281Z,78.27
2017-08-21T01:15:52.844Z,78.45
2017-08-21T01:16:33.429Z,78.36
2017-08-21T01:17:14.029Z,78.55
2017-08-21T01:17:54.602Z,78.36
2017-08-21T01:18:35.171Z,78.64
2017-08-21T01:19:15.759Z,78.74
2017-08-21T01:19:56.346Z,78.93
2017-08-21T01:20:36.936Z,78.64
2017-08-21T01:21:17.497Z,78.93
2017-08-21T01:21:58.073Z,78.74
2017-08-21T01:22:38.638Z,78.84
2017-08-21T01:23:19.211Z,78.74
2017-08-21T01:23:59.778Z,78.74
2017-08-21T01:24:40.349Z,78.74
2017-08-21T01:25:20.953Z,78.64
2017-08-21T01:26:01.532Z,78.74
2017-08-21T01:26:42.094Z,78.55
2017-08-21T01:27:22.672Z,78.55
2017-08-21T01:28:03.227Z,78.55
2017-08-21T01:28:43.799Z,78.64
2017-08-21T01:29:24.376Z,78.74
2017-08-21T01:30:04.958Z,78.74
2017-08-21T01:30:45.528Z,79.32
2017-08-21T01:31:26.101Z,79.22
2017-08-21T01:32:06.685Z,79.32
2017-08-21T01:32:47.260Z,78.45
2017-08-21T01:33:27.821Z,78.84
2017-08-21T01:34:08.388Z,78.45
2017-08-21T01:34:48.972Z,78.64
2017-08-21T01:35:29.547Z,78.36
2017-08-21T01:36:10.132Z,78.74
2017-08-21T01:36:50.721Z,78.64
2017-08-21T01:37:31.302Z,79.32
2017-08-21T01:38:11.874Z,79.22
2017-08-21T01:38:52.463Z,79.22
2017-08-21T01:39:33.027Z,79.32
2017-08-21T01:40:13.606Z,79.13
2017-08-21T01:40:54.177Z,78.93
2017-08-21T01:41:34.742Z,79.22
2017-08-21T01:42:15.353Z,79.13
2017-08-21T01:42:55.914Z,78.93
2017-08-21T01:43:36.488Z,79.03
2017-08-21T01:44:17.062Z,79.03
2017-08-21T01:44:57.632Z,79.03
2017-08-21T01:45:38.203Z,79.13
2017-08-21T01:46:18.813Z,79.32
2017-08-21T01:46:59.391Z,79.13
2017-08-21T01:47:39.964Z,79.32
2017-08-21T01:48:20.520Z,79.13
2017-08-21T01:49:01.090Z,79.03
2017-08-21T01:49:41.664Z,79.18
2017-08-21T01:50:22.225Z,79.18
2017-08-21T01:51:02.789Z,79.66
2017-08-21T01:51:43.365Z,79.41
2017-08-21T01:52:23.931Z,79.28
2017-08-21T01:53:04.488Z,79.66
2017-08-21T01:53:45.061Z,79.57
2017-08-21T01:54:25.637Z,79.66
2017-08-21T01:55:06.199Z,79.75
2017-08-21T01:55:46.766Z,79.47
2017-08-21T01:56:27.336Z,79.37
2017-08-21T01:57:07.908Z,79.57
2017-08-21T01:57:48.491Z,79.6
2017-08-21T01:58:29.064Z,79.75
2017-08-21T01:59:09.627Z,79.8
2017-08-21T01:59:50.195Z,79.89
2017-08-21T02:00:30.768Z,79.7
2017-08-21T02:01:11.347Z,79.75
2017-08-21T02:01:51.917Z,79.75
2017-08-21T02:02:32.487Z,79.8
2017-08-21T02:03:13.057Z,79.75
2017-08-21T02:03:53.617Z,79.85
2017-08-21T02:04:34.205Z,79.85
2017-08-21T02:05:14.779Z,80.18
2017-08-21T02:05:55.379Z,79.47
2017-08-21T02:06:35.967Z,79.95
2017-08-21T02:07:16.523Z,79.66
2017-08-21T02:07:57.112Z,79.66
2017-08-21T02:08:37.676Z,79.75
2017-08-21T02:09:18.247Z,79.75
2017-08-21T02:09:58.809Z,80.14
2017-08-21T02:10:39.382Z,80.14
2017-08-21T02:11:19.952Z,79.75
2017-08-21T02:12:00.523Z,79.66
2017-08-21T02:12:41.100Z,79.66
2017-08-21T02:13:21.656Z,79.37
2017-08-21T02:14:02.232Z,79.66
2017-08-21T02:14:42.807Z,79.37
2017-08-21T02:15:23.417Z,80.24
2017-08-21T02:16:04.004Z,80.14
2017-08-21T02:16:44.560Z,80.14
2017-08-21T02:17:25.149Z,80.52
2017-08-21T02:18:05.721Z,80.81
2017-08-21T02:18:46.294Z,80.81
2017-08-21T02:19:26.867Z,80.71
2017-08-21T02:20:07.428Z,80.81
2017-08-21T02:20:48.001Z,80.9
2017-08-21T02:21:28.598Z,81.1
2017-08-21T02:22:09.164Z,81.38
2017-08-21T02:22:49.732Z,80.71
2017-08-21T02:23:30.294Z,80.71
2017-08-21T02:24:10.865Z,80.81
2017-08-21T02:24:51.433Z,80.71
2017-08-21T02:25:32.006Z,80.71
2017-08-21T02:26:12.598Z,80.71
2017-08-21T02:26:53.175Z,80.52
2017-08-21T02:27:33.733Z,80.71
2017-08-21T02:28:14.312Z,81.1
2017-08-21T02:28:54.890Z,80.81
2017-08-21T02:29:35.471Z,81
2017-08-21T02:30:16.046Z,81
2017-08-21T02:30:56.614Z,81
2017-08-21T02:31:37.178Z,81
2017-08-21T02:32:17.749Z,80.9
2017-08-21T02:32:58.328Z,80.9
2017-08-21T02:33:38.912Z,81.2
2017-08-21T02:34:19.490Z,80.81
2017-08-21T02:35:00.060Z,80.81
2017-08-21T02:35:40.629Z,80.62
2017-08-21T02:36:21.205Z,80.81
2017-08-21T02:37:01.767Z,81
2017-08-21T02:37:42.359Z,81.29
2017-08-21T02:38:22.927Z,80.71
2017-08-21T02:39:03.518Z,80.81
2017-08-21T02:39:44.099Z,81.38
2017-08-21T02:40:24.659Z,81.2
2017-08-21T02:41:05.227Z,81.29
2017-08-21T02:41:45.812Z,81.48
2017-08-21T02:42:26.378Z,81.2
2017-08-21T02:43:06.957Z,81.38
2017-08-21T02:43:47.515Z,81.77
2017-08-21T02:44:28.089Z,81.48
2017-08-21T02:45:08.685Z,81.77
2017-08-21T02:45:49.246Z,81.57
2017-08-21T02:46:29.828Z,81.57
2017-08-21T02:47:10.410Z,81.38
2017-08-21T02:47:50.981Z,81.57
2017-08-21T02:48:31.567Z,81.48
2017-08-21T02:49:12.129Z,81.67
2017-08-21T02:49:52.691Z,81.38
2017-08-21T02:50:33.303Z,81.67
2017-08-21T02:51:13.876Z,81.77
2017-08-21T02:51:54.449Z,81.67
2017-08-21T02:52:35.029Z,81.86
2017-08-21T02:53:15.581Z,81.77
2017-08-21T02:53:56.155Z,81.67
2017-08-21T02:54:36.740Z,81.38
2017-08-21T02:55:17.298Z,81.67
2017-08-21T02:55:57.878Z,81.67
2017-08-21T02:56:38.454Z,81.67
2017-08-21T02:57:19.016Z,81.67
2017-08-21T02:57:59.582Z,81.48
2017-08-21T02:58:40.147Z,81.48
2017-08-21T02:59:20.727Z,81.77
2017-08-21T03:00:01.292Z,81.96
2017-08-21T03:00:41.857Z,81.48
2017-08-21T03:01:22.422Z,82.06
2017-08-21T03:02:03.012Z,81.57
2017-08-21T03:02:43.570Z,81.48
2017-08-21T03:03:24.164Z,81.77
2017-08-21T03:04:04.767Z,81.86
2017-08-21T03:04:45.345Z,81.77
2017-08-21T03:05:25.917Z,81.57
2017-08-21T03:06:06.490Z,81.57
2017-08-21T03:06:47.050Z,82.24
2017-08-21T03:07:27.639Z,81.77
2017-08-21T03:08:08.250Z,81.57
2017-08-21T03:08:48.827Z,81.96
2017-08-21T03:09:29.428Z,81.67
2017-08-21T03:10:10.002Z,81.96
2017-08-21T03:10:50.578Z,81.67
2017-08-21T03:11:31.124Z,81.77
2017-08-21T03:12:11.693Z,81.86
2017-08-21T03:12:52.279Z,81.77
2017-08-21T03:13:32.852Z,81.77
2017-08-21T03:14:13.415Z,81.86
2017-08-21T03:14:53.990Z,81.86
2017-08-21T03:15:34.577Z,81.96
2017-08-21T03:16:15.141Z,81.77
2017-08-21T03:16:55.719Z,81.86
2017-08-21T03:17:36.281Z,82.43
2017-08-21T03:18:16.846Z,81.48
2017-08-21T03:18:57.426Z,81.48
2017-08-21T03:19:37.992Z,81.77
2017-08-21T03:20:18.585Z,81.77
2017-08-21T03:20:59.148Z,81.86
2017-08-21T03:21:39.712Z,81.86
2017-08-21T03:22:20.299Z,82.43
2017-08-21T03:23:00.886Z,81.77
2017-08-21T03:23:41.455Z,82.43
2017-08-21T03:24:22.046Z,82.15
2017-08-21T03:25:02.605Z,82.15
2017-08-21T03:25:43.211Z,81.96
2017-08-21T03:26:23.776Z,82.06
2017-08-21T03:27:04.356Z,82.53
2017-08-21T03:27:44.930Z,82.24
2017-08-21T03:28:25.502Z,81.77
2017-08-21T03:29:06.075Z,82.06
2017-08-21T03:29:46.648Z,81.86
2017-08-21T03:30:27.214Z,81.86
2017-08-21T03:31:07.799Z,81.57
2017-08-21T03:31:48.385Z,81.96
2017-08-21T03:32:28.950Z,81.86
2017-08-21T03:33:09.524Z,82.24
2017-08-21T03:33:50.114Z,82.15
2017-08-21T03:34:30.681Z,82.15
2017-08-21T03:35:11.260Z,81.57
2017-08-21T03:35:51.834Z,81.67
2017-08-21T03:36:32.399Z,81.86
2017-08-21T03:37:12.967Z,82.24
2017-08-21T03:37:53.532Z,82.43
2017-08-21T03:38:34.117Z,82.43
2017-08-21T03:39:14.688Z,82.24
2017-08-21T03:39:55.275Z,82.24
2017-08-21T03:40:35.841Z,82.06
2017-08-21T03:41:16.437Z,82.29
2017-08-21T03:41:57.005Z,82.24
2017-08-21T03:42:37.581Z,82.24
2017-08-21T03:43:18.146Z,82.43
2017-08-21T03:43:58.712Z,82.24
2017-08-21T03:44:39.278Z,82.43
2017-08-21T03:45:19.850Z,81.77
2017-08-21T03:46:00.417Z,81.96
2017-08-21T03:46:40.979Z,81.67
2017-08-21T03:47:21.553Z,81.67
2017-08-21T03:48:02.123Z,81.77
2017-08-21T03:48:42.693Z,81.81
2017-08-21T03:49:23.281Z,82.06
2017-08-21T03:50:03.868Z,82.15
2017-08-21T03:50:44.427Z,82.24
2017-08-21T03:51:24.998Z,82.43
2017-08-21T03:52:05.589Z,82.15
2017-08-21T03:52:46.173Z,81.96
2017-08-21T03:53:26.755Z,82.43
2017-08-21T03:54:07.331Z,81.77
2017-08-21T03:54:47.898Z,81.48
2017-08-21T03:55:28.479Z,81.48
2017-08-21T03:56:09.061Z,81.38
2017-08-21T03:56:49.627Z,81.67
2017-08-21T03:57:30.209Z,81.86
2017-08-21T03:58:10.784Z,82.43
2017-08-21T03:58:51.349Z,82.24
2017-08-21T03:59:31.909Z,82.15
2017-08-21T04:00:12.485Z,82.06
2017-08-21T04:00:53.061Z,82.43
2017-08-21T04:01:33.619Z,81.81
2017-08-21T04:02:14.190Z,81.77
2017-08-21T04:02:54.764Z,81.77
2017-08-21T04:03:35.346Z,81.96
2017-08-21T04:04:15.912Z,81.57
2017-08-21T04:04:56.493Z,81.67
2017-08-21T04:05:37.046Z,81.48
2017-08-21T04:06:17.634Z,81.96
2017-08-21T04:06:58.190Z,82.43
2017-08-21T04:07:38.758Z,82.24
2017-08-21T04:08:19.341Z,82.24
2017-08-21T04:08:59.906Z,82.15
2017-08-21T04:09:40.496Z,81.57
2017-08-21T04:10:21.062Z,81.86
2017-08-21T04:11:01.637Z,81.86
2017-08-21T04:11:42.205Z,81.86
2017-08-21T04:12:22.773Z,81.96
2017-08-21T04:13:03.342Z,81.81
2017-08-21T04:13:43.911Z,81.77
2017-08-21T04:14:24.477Z,81.77
2017-08-21T04:15:05.059Z,81.38
2017-08-21T04:15:45.651Z,81.67
2017-08-21T04:16:26.218Z,82
2017-08-21T04:17:06.789Z,81.81
2017-08-21T04:17:47.350Z,81.67
2017-08-21T04:18:27.938Z,81.67
2017-08-21T04:19:08.518Z,81.62
2017-08-21T04:19:49.082Z,81.2
2017-08-21T04:20:29.676Z,81
2017-08-21T04:21:10.274Z,80.81
2017-08-21T04:21:50.846Z,81.2
2017-08-21T04:22:31.410Z,81.48
2017-08-21T04:23:11.976Z,81.48
2017-08-21T04:23:52.548Z,81.1
2017-08-21T04:24:33.144Z,81.77
2017-08-21T04:25:13.718Z,81.48
2017-08-21T04:25:54.284Z,81.48
2017-08-21T04:26:34.842Z,81.77
2017-08-21T04:27:15.409Z,81.67
2017-08-21T04:27:55.987Z,81.77
2017-08-21T04:28:36.574Z,81.2
2017-08-21T04:29:17.138Z,80.9
2017-08-21T04:29:57.707Z,81.77
2017-08-21T04:30:38.275Z,81.48
2017-08-21T04:31:18.877Z,81.67
2017-08-21T04:31:59.451Z,81.48
2017-08-21T04:32:40.038Z,81.67
2017-08-21T04:33:20.612Z,81.67
2017-08-21T04:34:01.183Z,81.86
2017-08-21T04:34:41.753Z,81.77
2017-08-21T04:35:22.323Z,81.96
2017-08-21T04:36:02.893Z,81.67
2017-08-21T04:36:43.466Z,81.86
2017-08-21T04:37:24.049Z,82.24
2017-08-21T04:38:04.602Z,82.24
2017-08-21T04:38:45.171Z,82.24
2017-08-21T04:39:25.741Z,81.57
2017-08-21T04:40:06.303Z,81.81
2017-08-21T04:40:46.877Z,81.67
2017-08-21T04:41:27.462Z,81.86
2017-08-21T04:42:08.039Z,81.71
2017-08-21T04:42:48.609Z,81.48
2017-08-21T04:43:29.191Z,81.96
2017-08-21T04:44:09.757Z,81.52
2017-08-21T04:44:50.335Z,81.62
2017-08-21T04:45:30.917Z,81.52
2017-08-21T04:46:11.490Z,81.67
2017-08-21T04:46:52.072Z,81.71
2017-08-21T04:47:32.638Z,81.52
2017-08-21T04:48:13.220Z,81.77
2017-08-21T04:48:53.795Z,81.48
2017-08-21T04:49:34.380Z,81.38
2017-08-21T04:50:14.936Z,81.71
2017-08-21T04:50:55.499Z,81.9
2017-08-21T04:51:36.069Z,81.67
2017-08-21T04:52:16.648Z,81.96
2017-08-21T04:52:57.229Z,82.09
2017-08-21T04:53:37.818Z,81.81
2017-08-21T04:54:18.401Z,81.81
2017-08-21T04:54:58.971Z,81.77
2017-08-21T04:55:39.552Z,81.77
2017-08-21T04:56:20.133Z,81.77
2017-08-21T04:57:00.716Z,81.52
2017-08-21T04:57:41.303Z,81.81
2017-08-21T04:58:21.874Z,82.06
2017-08-21T04:59:02.437Z,81.62
2017-08-21T04:59:43.011Z,81.71
2017-08-21T05:00:23.582Z,81.23
2017-08-21T05:01:04.158Z,81.62
2017-08-21T05:01:44.749Z,80.9
2017-08-21T05:02:25.333Z,81.48
2017-08-21T05:03:05.899Z,81.38
2017-08-21T05:03:46.501Z,81.04
2017-08-21T05:04:27.080Z,81.57
2017-08-21T05:05:07.645Z,81.77
2017-08-21T05:05:48.215Z,81.9
2017-08-21T05:06:28.780Z,81.57
2017-08-21T05:07:09.350Z,81.67
2017-08-21T05:07:49.908Z,81.48
2017-08-21T05:08:30.498Z,81.43
2017-08-21T05:09:11.073Z,81.1
2017-08-21T05:09:51.665Z,81
2017-08-21T05:10:32.237Z,80.81
2017-08-21T05:11:12.818Z,81.04
2017-08-21T05:11:53.389Z,81.1
2017-08-21T05:12:33.956Z,80.9
2017-08-21T05:13:14.543Z,81.62
2017-08-21T05:13:55.106Z,81.67
2017-08-21T05:14:35.680Z,81.52
2017-08-21T05:15:16.252Z,81.52
2017-08-21T05:15:56.843Z,81.71
2017-08-21T05:16:37.408Z,81.52
2017-08-21T05:17:17.988Z,81.04
2017-08-21T05:17:58.563Z,81.23
2017-08-21T05:18:39.142Z,81.04
2017-08-21T05:19:19.722Z,80.94
2017-08-21T05:20:00.302Z,81.04
2017-08-21T05:20:40.894Z,80.94
2017-08-21T05:21:21.444Z,80.76
2017-08-21T05:22:02.023Z,80.76
2017-08-21T05:22:42.591Z,80.85
2017-08-21T05:23:23.157Z,80.94
2017-08-21T05:24:03.735Z,80.94
2017-08-21T05:24:44.335Z,80.94
2017-08-21T05:25:24.901Z,80.85
2017-08-21T05:26:05.467Z,80.85
2017-08-21T05:26:46.033Z,80.37
2017-08-21T05:27:26.611Z,80.37
2017-08-21T05:28:07.176Z,80.85
2017-08-21T05:28:47.737Z,80.76
2017-08-21T05:29:28.317Z,80.85
2017-08-21T05:30:08.894Z,80.66
2017-08-21T05:30:49.464Z,80.08
2017-08-21T05:31:30.031Z,79.89
2017-08-21T05:32:10.606Z,79.7
2017-08-21T05:32:51.206Z,79.7
2017-08-21T05:33:31.796Z,79.89
2017-08-21T05:34:12.357Z,80.27
2017-08-21T05:34:52.930Z,79.99
2017-08-21T05:35:33.487Z,80.27
2017-08-21T05:36:14.059Z,80.76
2017-08-21T05:36:54.618Z,80.85
2017-08-21T05:37:35.183Z,80.66
2017-08-21T05:38:15.760Z,80.56
2017-08-21T05:38:56.335Z,80.76
2017-08-21T05:39:36.911Z,80.56
2017-08-21T05:40:17.496Z,80.76
2017-08-21T05:40:58.083Z,80.47
2017-08-21T05:41:38.667Z,80.66
2017-08-21T05:42:19.283Z,80.56
2017-08-21T05:42:59.868Z,79.89
2017-08-21T05:43:40.455Z,80.18
2017-08-21T05:44:21.022Z,80.66
2017-08-21T05:45:01.607Z,80.27
2017-08-21T05:45:42.174Z,79.99
2017-08-21T05:46:22.741Z,80.08
2017-08-21T05:47:03.309Z,80.24
2017-08-21T05:47:43.912Z,80.37
2017-08-21T05:48:24.476Z,80.47
2017-08-21T05:49:05.059Z,80.66
2017-08-21T05:49:45.631Z,80.76
2017-08-21T05:50:26.204Z,80.94
2017-08-21T05:51:06.782Z,81
2017-08-21T05:51:47.352Z,80.85
2017-08-21T05:52:27.914Z,80.85
2017-08-21T05:53:08.510Z,80.85
2017-08-21T05:53:49.077Z,80.85
2017-08-21T05:54:29.642Z,80.66
2017-08-21T05:55:10.214Z,81.04
2017-08-21T05:55:50.793Z,80.85
2017-08-21T05:56:31.374Z,80.66
2017-08-21T05:57:11.955Z,79.7
2017-08-21T05:57:52.522Z,79.99
2017-08-21T05:58:33.117Z,79.7
2017-08-21T05:59:13.693Z,80.08
2017-08-21T05:59:54.266Z,79.99
2017-08-21T06:00:34.847Z,79.85
2017-08-21T06:01:15.412Z,79.6
2017-08-21T06:01:55.985Z,79.7
2017-08-21T06:02:36.558Z,79.75
2017-08-21T06:03:17.123Z,79.66
2017-08-21T06:03:57.700Z,79.6
2017-08-21T06:04:38.287Z,79.95
2017-08-21T06:05:18.855Z,80.04
2017-08-21T06:05:59.422Z,80.04
2017-08-21T06:06:39.993Z,80.24
2017-08-21T06:07:20.570Z,80.14
2017-08-21T06:08:01.137Z,80.33
2017-08-21T06:08:41.713Z,80.18
2017-08-21T06:09:22.285Z,80.14
2017-08-21T06:10:02.856Z,80.08
2017-08-21T06:10:43.428Z,80.14
2017-08-21T06:11:24.014Z,80.14
2017-08-21T06:12:04.582Z,79.8
2017-08-21T06:12:45.177Z,79.47
2017-08-21T06:13:25.747Z,80.04
2017-08-21T06:14:06.337Z,79.37
2017-08-21T06:14:46.919Z,79.57
2017-08-21T06:15:27.508Z,79.57
2017-08-21T06:16:08.096Z,79.95
2017-08-21T06:16:48.678Z,80.14
2017-08-21T06:17:29.267Z,80.71
2017-08-21T06:18:09.846Z,80.52
2017-08-21T06:18:50.416Z,80.81
2017-08-21T06:19:31.018Z,80.62
2017-08-21T06:20:11.605Z,80.43
2017-08-21T06:20:52.185Z,80.04
2017-08-21T06:21:32.774Z,80.24
2017-08-21T06:22:13.351Z,79.66
2017-08-21T06:22:53.934Z,79.75
2017-08-21T06:23:34.496Z,79.66
2017-08-21T06:24:15.078Z,80.14
2017-08-21T06:24:55.643Z,80.9
2017-08-21T06:25:36.216Z,80.71
2017-08-21T06:26:16.793Z,80.81
2017-08-21T06:26:57.383Z,80.71
2017-08-21T06:27:37.966Z,80.81
2017-08-21T06:28:18.550Z,80.62
2017-08-21T06:28:59.145Z,80.9
2017-08-21T06:29:39.711Z,80.71
2017-08-21T06:30:20.275Z,80.71
2017-08-21T06:31:00.843Z,80.9
2017-08-21T06:31:41.410Z,80.43
2017-08-21T06:32:22.009Z,80.62
2017-08-21T06:33:02.583Z,80.62
2017-08-21T06:33:43.164Z,80.9
2017-08-21T06:34:23.756Z,80.62
2017-08-21T06:35:04.328Z,81
2017-08-21T06:35:44.911Z,80.52
2017-08-21T06:36:25.481Z,80.24
2017-08-21T06:37:06.047Z,80.37
2017-08-21T06:37:46.617Z,80.04
2017-08-21T06:38:27.188Z,80.14
2017-08-21T06:39:07.767Z,80.08
2017-08-21T06:39:48.353Z,80.18
2017-08-21T06:40:28.941Z,80.18
2017-08-21T06:41:09.524Z,80.18
2017-08-21T06:41:50.100Z,79.75
2017-08-21T06:42:30.669Z,79.7
2017-08-21T06:43:11.261Z,79.41
2017-08-21T06:43:51.846Z,79.6
2017-08-21T06:44:32.402Z,79.99
2017-08-21T06:45:12.951Z,79.89
2017-08-21T06:45:53.530Z,79.8
2017-08-21T06:46:34.448Z,79.51
2017-08-21T06:47:14.851Z,79.6
2017-08-21T06:47:55.429Z,79.7
2017-08-21T06:48:36.005Z,79.51
2017-08-21T06:49:16.574Z,79.7
2017-08-21T06:49:57.142Z,79.6
2017-08-21T06:50:37.707Z,79.41
2017-08-21T06:51:18.272Z,79.41
2017-08-21T06:51:58.858Z,79.22
2017-08-21T06:52:39.426Z,78.27
2017-08-21T06:53:20.003Z,78.74
2017-08-21T06:54:00.575Z,79.22
2017-08-21T06:54:41.148Z,79.41
2017-08-21T06:55:21.731Z,79.6
2017-08-21T06:56:02.302Z,79.41
2017-08-21T06:56:42.882Z,79.41
2017-08-21T06:57:23.455Z,79.51
2017-08-21T06:58:04.049Z,79.03
2017-08-21T06:58:44.613Z,79.26
2017-08-21T06:59:25.181Z,79.45
2017-08-21T07:00:05.736Z,78.88
2017-08-21T07:00:46.309Z,78.59
2017-08-21T07:01:26.880Z,78.69
2017-08-21T07:02:07.449Z,78.97
2017-08-21T07:02:48.020Z,78.59
2017-08-21T07:03:28.595Z,78.59
2017-08-21T07:04:09.167Z,78.3
2017-08-21T07:04:49.746Z,77.53
2017-08-21T07:05:30.316Z,77.63
2017-08-21T07:06:10.884Z,77.44
2017-08-21T07:06:51.462Z,77.53
2017-08-21T07:07:32.045Z,77.44
2017-08-21T07:08:12.629Z,77.25
2017-08-21T07:08:53.200Z,77.34
2017-08-21T07:09:33.772Z,77.53
2017-08-21T07:10:14.338Z,77.25
2017-08-21T07:10:54.931Z,77.34
2017-08-21T07:11:35.525Z,77.25
2017-08-21T07:12:16.102Z,77.44
2017-08-21T07:12:56.693Z,77.25
2017-08-21T07:13:37.287Z,76.77
2017-08-21T07:14:17.863Z,77.25
2017-08-21T07:14:58.426Z,77.44
2017-08-21T07:15:38.984Z,77.34
2017-08-21T07:16:19.551Z,77.34
2017-08-21T07:17:00.137Z,77.73
2017-08-21T07:17:40.712Z,78.02
2017-08-21T07:18:21.275Z,78.11
2017-08-21T07:19:01.842Z,77.92
2017-08-21T07:19:42.412Z,77.92
2017-08-21T07:20:22.987Z,77.92
2017-08-21T07:21:03.587Z,77.82
2017-08-21T07:21:44.148Z,77.82
2017-08-21T07:22:24.721Z,77.63
2017-08-21T07:23:05.290Z,77.73
2017-08-21T07:23:45.858Z,77.15
2017-08-21T07:24:26.423Z,77.15
2017-08-21T07:25:06.994Z,77.34
2017-08-21T07:25:47.553Z,77.44
2017-08-21T07:26:28.126Z,76.86
2017-08-21T07:27:08.694Z,77.44
2017-08-21T07:27:49.281Z,77.82
2017-08-21T07:28:29.898Z,77.82
2017-08-21T07:29:10.466Z,77.82
2017-08-21T07:29:51.036Z,77.19
2017-08-21T07:30:31.606Z,77.09
2017-08-21T07:31:12.169Z,76.42
2017-08-21T07:31:52.735Z,76
2017-08-21T07:32:33.311Z,76.52
2017-08-21T07:33:13.875Z,76.14
2017-08-21T07:33:54.450Z,75.27
2017-08-21T07:34:35.019Z,75.75
2017-08-21T07:35:15.584Z,75.75
2017-08-21T07:35:56.149Z,75.75
2017-08-21T07:36:36.709Z,75.56
2017-08-21T07:37:17.280Z,75.56
2017-08-21T07:37:57.856Z,75.46
2017-08-21T07:38:38.444Z,75.65
2017-08-21T07:39:19.021Z,75.65
2017-08-21T07:39:59.588Z,75.52
2017-08-21T07:40:40.162Z,76.48
2017-08-21T07:41:20.742Z,76.29
2017-08-21T07:42:01.317Z,76.1
2017-08-21T07:42:41.880Z,76.39
2017-08-21T07:43:22.452Z,76.39
2017-08-21T07:44:03.030Z,76.1
2017-08-21T07:44:43.604Z,76.48
2017-08-21T07:45:24.170Z,76.48
2017-08-21T07:46:04.728Z,76.29
2017-08-21T07:46:45.298Z,76.39
2017-08-21T07:47:25.888Z,76.48
2017-08-21T07:48:06.469Z,76.77
2017-08-21T07:48:47.042Z,76.67
2017-08-21T07:49:27.607Z,76.19
2017-08-21T07:50:08.171Z,75.23
2017-08-21T07:50:48.726Z,74.95
2017-08-21T07:51:29.297Z,75.04
2017-08-21T07:52:09.869Z,75.81
2017-08-21T07:52:50.434Z,76.06
2017-08-21T07:53:30.995Z,76.86
2017-08-21T07:54:11.572Z,76.92
2017-08-21T07:54:52.142Z,77.34
2017-08-21T07:55:32.719Z,77.53
2017-08-21T07:56:13.279Z,77.73
2017-08-21T07:56:53.853Z,77.34
2017-08-21T07:57:34.420Z,77.82
2017-08-21T07:58:14.996Z,77.15
2017-08-21T07:58:55.579Z,77.19
2017-08-21T07:59:36.159Z,77.09
2017-08-21T08:00:16.720Z,76.42
2017-08-21T08:00:57.302Z,76.17
2017-08-21T08:01:37.871Z,75.31
2017-08-21T08:02:18.438Z,74.39
2017-08-21T08:02:59.028Z,74.01
2017-08-21T08:03:39.592Z,73.52
2017-08-21T08:04:20.170Z,73.62
2017-08-21T08:05:00.758Z,74.1
2017-08-21T08:05:41.337Z,73.18
2017-08-21T08:06:21.921Z,73.27
2017-08-21T08:07:02.525Z,72.69
2017-08-21T08:07:43.114Z,72.69
2017-08-21T08:08:23.693Z,72.64
2017-08-21T08:09:04.264Z,71.58
2017-08-21T08:09:44.829Z,70.81
2017-08-21T08:10:25.413Z,70.14
2017-08-21T08:11:05.991Z,68.89
2017-08-21T08:11:46.562Z,70.04
2017-08-21T08:12:27.138Z,69.95
2017-08-21T08:13:07.710Z,70.58
2017-08-21T08:13:48.283Z,71.35
2017-08-21T08:14:28.856Z,71.35
2017-08-21T08:15:09.440Z,71.29
2017-08-21T08:15:50.024Z,70.72
2017-08-21T08:16:30.611Z,70.81
2017-08-21T08:17:11.180Z,70.04
2017-08-21T08:17:51.765Z,70.72
2017-08-21T08:18:32.340Z,69.18
2017-08-21T08:19:12.928Z,67.83
2017-08-21T08:19:53.493Z,69.08
2017-08-21T08:20:34.060Z,69.18
2017-08-21T08:21:14.629Z,68.89
2017-08-21T08:21:55.258Z,69.18
2017-08-21T08:22:35.837Z,69.18
2017-08-21T08:23:16.411Z,68.51
2017-08-21T08:23:56.982Z,68.51
2017-08-21T08:24:37.563Z,69.27
2017-08-21T08:25:18.142Z,69.18
2017-08-21T08:25:58.739Z,69.37
2017-08-21T08:26:39.307Z,69.27
2017-08-21T08:27:19.875Z,69.37
2017-08-21T08:28:00.448Z,69.37
2017-08-21T08:28:41.016Z,68.79
2017-08-21T08:29:21.590Z,68.89
2017-08-21T08:30:02.161Z,69.08
2017-08-21T08:30:42.735Z,68.31
2017-08-21T08:31:23.302Z,68.21
2017-08-21T08:32:03.882Z,68.12
2017-08-21T08:32:44.459Z,68.12
2017-08-21T08:33:25.031Z,68.41
2017-08-21T08:34:05.599Z,68.21
2017-08-21T08:34:46.173Z,69.05
2017-08-21T08:35:26.748Z,68.98
2017-08-21T08:36:07.319Z,69.18
2017-08-21T08:36:47.891Z,68.28
2017-08-21T08:37:28.489Z,68.31
2017-08-21T08:38:09.061Z,68.02
2017-08-21T08:38:49.633Z,69.27
2017-08-21T08:39:30.214Z,69.46
2017-08-21T08:40:10.810Z,68.41
2017-08-21T08:40:51.375Z,66.77
2017-08-21T08:41:31.963Z,67.45
2017-08-21T08:42:13.189Z,68.79
2017-08-21T08:42:53.750Z,69.37
2017-08-21T08:43:34.327Z,68.51
2017-08-21T08:44:14.914Z,68.12